createdAt,value
2022-07-30T00:00:44.599Z,27.89
2022-07-30T00:03:11.095Z,27.88
2022-07-30T00:05:37.585Z,27.88
2022-07-30T00:08:04.267Z,27.88
2022-07-30T00:10:30.837Z,27.87
2022-07-30T00:12:57.315Z,27.88
2022-07-30T00:15:24.521Z,27.88
2022-07-30T00:17:51.109Z,27.88
2022-07-30T00:20:18.525Z,27.88
2022-07-30T00:22:45.175Z,27.87
2022-07-30T00:25:11.673Z,27.84
2022-07-30T00:27:40.125Z,27.87
2022-07-30T00:30:19.126Z,27.86
2022-07-30T00:32:45.562Z,27.86
2022-07-30T00:35:12.075Z,27.68
2022-07-30T00:37:38.530Z,27.77
2022-07-30T00:40:06.953Z,27.82
2022-07-30T00:42:40.676Z,27.88
2022-07-30T00:45:08.164Z,27.86
2022-07-30T00:47:34.666Z,27.87
2022-07-30T00:50:04.183Z,27.85
2022-07-30T00:52:34.051Z,27.86
2022-07-30T00:55:00.938Z,27.85
2022-07-30T00:57:28.498Z,27.85
2022-07-30T00:59:55.305Z,27.84
2022-07-30T01:02:22.256Z,27.85
2022-07-30T01:04:48.962Z,27.83
2022-07-30T01:07:15.564Z,27.84
2022-07-30T01:09:42.099Z,27.84
2022-07-30T01:12:19.607Z,27.83
2022-07-30T01:14:46.156Z,27.85
2022-07-30T01:17:12.602Z,27.84
2022-07-30T01:19:52.147Z,27.84
2022-07-30T01:22:24.699Z,27.83
2022-07-30T01:25:06.267Z,27.82
2022-07-30T01:27:44.224Z,27.74
2022-07-30T01:30:12.382Z,27.82
2022-07-30T01:32:44.153Z,27.81
2022-07-30T01:35:12.796Z,27.69
2022-07-30T01:37:40.273Z,27.80
2022-07-30T01:40:07.487Z,27.80
2022-07-30T01:42:36.192Z,27.80
2022-07-30T01:45:04.366Z,27.81
2022-07-30T01:47:34.323Z,27.81
2022-07-30T01:50:02.737Z,27.79
2022-07-30T01:52:32.759Z,27.80
2022-07-30T01:55:01.075Z,27.79
2022-07-30T01:57:28.352Z,27.76
2022-07-30T02:00:01.540Z,27.80
2022-07-30T02:02:28.208Z,27.77
2022-07-30T02:04:54.756Z,27.79
2022-07-30T02:07:45.927Z,27.79
2022-07-30T02:10:19.259Z,27.77
2022-07-30T02:12:53.793Z,27.73
2022-07-30T02:15:20.188Z,27.76
2022-07-30T02:18:23.876Z,27.76
2022-07-30T02:21:07.611Z,27.76
2022-07-30T02:23:44.106Z,27.76
2022-07-30T02:26:18.564Z,27.74
2022-07-30T02:28:49.619Z,27.74
2022-07-30T02:31:20.897Z,27.61
2022-07-30T02:33:50.018Z,27.74
2022-07-30T02:36:19.205Z,27.74
2022-07-30T02:38:47.285Z,27.73
2022-07-30T02:41:15.359Z,27.66
2022-07-30T02:43:42.716Z,27.73
2022-07-30T02:46:11.405Z,27.70
2022-07-30T02:48:39.974Z,27.71
2022-07-30T02:51:08.547Z,27.56
2022-07-30T02:53:37.479Z,27.72
2022-07-30T02:56:08.067Z,27.61
2022-07-30T02:58:37.853Z,27.64
2022-07-30T03:01:05.496Z,27.65
2022-07-30T03:03:32.769Z,27.70
2022-07-30T03:06:00.407Z,27.70
2022-07-30T03:08:27.971Z,27.59
2022-07-30T03:10:56.192Z,27.70
2022-07-30T03:13:23.750Z,27.59
2022-07-30T03:15:52.007Z,27.61
2022-07-30T03:18:20.323Z,27.64
2022-07-30T03:20:50.517Z,27.68
2022-07-30T03:23:19.659Z,27.68
2022-07-30T03:25:52.530Z,27.68
2022-07-30T03:28:24.087Z,27.69
2022-07-30T03:30:52.567Z,27.57
2022-07-30T03:33:20.159Z,27.51
2022-07-30T03:35:48.855Z,27.67
2022-07-30T03:38:16.126Z,27.66
2022-07-30T03:40:43.778Z,27.66
2022-07-30T03:43:18.305Z,27.65
2022-07-30T03:45:58.991Z,27.66
2022-07-30T03:48:26.172Z,27.64
2022-07-30T03:50:54.113Z,27.64
2022-07-30T03:53:24.940Z,27.64
2022-07-30T03:55:53.547Z,27.63
2022-07-30T03:58:20.305Z,27.64
2022-07-30T04:00:48.915Z,27.64
2022-07-30T04:03:29.098Z,27.64
2022-07-30T04:05:55.928Z,27.64
2022-07-30T04:08:22.915Z,27.64
2022-07-30T04:10:50.468Z,27.51
2022-07-30T04:13:17.690Z,27.62
2022-07-30T04:16:37.885Z,27.62
2022-07-30T04:18:38.657Z,27.60
2022-07-30T04:21:17.327Z,27.63
2022-07-30T04:24:03.772Z,27.62
2022-07-30T04:26:34.421Z,27.59
2022-07-30T04:29:01.857Z,27.62
2022-07-30T04:31:29.512Z,27.49
2022-07-30T04:34:02.762Z,27.26
2022-07-30T04:36:33.117Z,27.61
2022-07-30T04:39:00.763Z,27.53
2022-07-30T04:41:27.417Z,27.62
2022-07-30T04:43:53.902Z,27.60
2022-07-30T04:46:24.720Z,27.44
2022-07-30T04:48:52.005Z,27.60
2022-07-30T04:51:24.133Z,27.44
2022-07-30T04:53:52.353Z,27.61
2022-07-30T04:56:21.344Z,27.61
2022-07-30T04:58:49.047Z,27.52
2022-07-30T05:01:21.383Z,27.48
2022-07-30T05:03:50.004Z,27.41
2022-07-30T05:06:17.455Z,27.61
2022-07-30T05:08:44.703Z,27.60
2022-07-30T05:11:13.150Z,27.60
2022-07-30T05:13:46.380Z,27.54
2022-07-30T05:16:13.123Z,27.51
2022-07-30T05:18:39.739Z,27.59
2022-07-30T05:21:06.931Z,27.58
2022-07-30T05:23:33.831Z,27.58
2022-07-30T05:26:00.378Z,27.59
2022-07-30T05:28:26.848Z,27.59
2022-07-30T05:30:54.514Z,27.47
2022-07-30T05:33:40.994Z,27.59
2022-07-30T05:36:09.537Z,27.59
2022-07-30T05:38:36.114Z,27.59
2022-07-30T05:41:02.558Z,27.60
2022-07-30T05:43:29.124Z,27.59
2022-07-30T05:45:55.622Z,27.60
2022-07-30T05:48:22.131Z,27.60
2022-07-30T05:50:48.538Z,27.58
2022-07-30T05:53:15.001Z,27.59
2022-07-30T05:55:41.483Z,27.45
2022-07-30T05:58:07.912Z,27.58
2022-07-30T06:00:35.616Z,27.59
2022-07-30T06:03:02.502Z,27.59
2022-07-30T06:05:29.015Z,27.59
2022-07-30T06:07:55.468Z,27.58
2022-07-30T06:10:21.918Z,27.60
2022-07-30T06:12:48.355Z,27.60
2022-07-30T06:15:14.983Z,27.61
2022-07-30T06:17:51.066Z,27.53
2022-07-30T06:20:24.780Z,27.62
2022-07-30T06:22:51.287Z,27.62
2022-07-30T06:25:18.705Z,27.60
2022-07-30T06:27:45.330Z,27.62
2022-07-30T06:30:12.101Z,27.63
2022-07-30T06:32:38.646Z,27.50
2022-07-30T06:35:05.733Z,27.63
2022-07-30T06:38:00.782Z,27.63
2022-07-30T06:40:19.196Z,27.63
2022-07-30T06:42:45.905Z,27.64
2022-07-30T06:45:12.329Z,27.65
2022-07-30T06:47:38.795Z,27.59
2022-07-30T06:50:05.834Z,27.25
2022-07-30T06:52:32.784Z,27.57
2022-07-30T06:54:59.218Z,27.66
2022-07-30T06:57:25.658Z,27.64
2022-07-30T06:59:56.304Z,27.66
2022-07-30T07:02:23.853Z,27.66
2022-07-30T07:04:50.312Z,27.66
2022-07-30T07:07:31.461Z,27.67
2022-07-30T07:10:03.983Z,27.27
2022-07-30T07:12:30.444Z,27.56
2022-07-30T07:14:56.934Z,27.69
2022-07-30T07:17:26.188Z,27.69
2022-07-30T07:20:01.770Z,27.70
2022-07-30T07:22:29.548Z,27.67
2022-07-30T07:24:56.105Z,27.56
2022-07-30T07:27:22.737Z,27.70
2022-07-30T07:30:05.780Z,27.71
2022-07-30T07:32:34.111Z,27.71
2022-07-30T07:35:00.956Z,27.61
2022-07-30T07:37:27.604Z,27.71
2022-07-30T07:39:54.092Z,27.72
2022-07-30T07:42:20.657Z,27.73
2022-07-30T07:44:47.141Z,27.74
2022-07-30T07:47:13.699Z,27.64
2022-07-30T07:49:40.193Z,27.71
2022-07-30T07:52:07.079Z,27.71
2022-07-30T07:54:33.580Z,27.77
2022-07-30T07:57:02.461Z,27.79
2022-07-30T07:59:40.331Z,27.76
2022-07-30T08:02:08.551Z,27.80
2022-07-30T08:04:35.932Z,27.80
2022-07-30T08:07:03.238Z,27.81
2022-07-30T08:09:44.060Z,27.83
2022-07-30T08:12:12.324Z,27.81
2022-07-30T08:14:39.083Z,27.79
2022-07-30T08:17:06.152Z,27.85
2022-07-30T08:19:33.167Z,27.87
2022-07-30T08:21:59.833Z,27.88
2022-07-30T08:24:26.866Z,27.88
2022-07-30T08:26:53.400Z,27.90
2022-07-30T08:29:19.858Z,27.91
2022-07-30T08:31:46.305Z,27.85
2022-07-30T08:34:13.561Z,27.93
2022-07-30T08:36:40.232Z,27.93
2022-07-30T08:39:06.699Z,27.94
2022-07-30T08:41:33.220Z,27.95
2022-07-30T08:44:01.578Z,27.96
2022-07-30T08:46:30.888Z,27.97
2022-07-30T08:48:58.106Z,27.95
2022-07-30T08:51:25.099Z,27.98
2022-07-30T08:53:51.683Z,27.91
2022-07-30T08:56:18.482Z,27.92
2022-07-30T08:58:45.856Z,28.01
2022-07-30T09:01:12.292Z,27.84
2022-07-30T09:03:44.520Z,27.91
2022-07-30T09:06:11.743Z,28.02
2022-07-30T09:08:38.244Z,28.03
2022-07-30T09:11:04.707Z,28.04
2022-07-30T09:13:37.642Z,28.04
2022-07-30T09:16:06.173Z,28.03
2022-07-30T09:18:34.195Z,28.05
2022-07-30T09:21:02.166Z,28.07
2022-07-30T09:23:28.960Z,28.04
2022-07-30T09:25:59.896Z,28.07
2022-07-30T09:28:31.263Z,28.08
2022-07-30T09:30:58.424Z,27.59
2022-07-30T09:33:38.756Z,28.10
2022-07-30T09:36:11.632Z,28.09
2022-07-30T09:38:47.830Z,28.10
2022-07-30T09:41:36.345Z,28.11
2022-07-30T09:44:03.968Z,28.13
2022-07-30T09:46:43.435Z,28.14
2022-07-30T09:49:29.204Z,28.13
2022-07-30T09:51:57.505Z,28.17
2022-07-30T09:54:52.837Z,28.18
2022-07-30T09:57:25.850Z,28.01
2022-07-30T09:59:55.626Z,28.20
2022-07-30T10:02:32.172Z,28.20
2022-07-30T10:05:10.157Z,28.22
2022-07-30T10:07:55.819Z,28.22
2022-07-30T10:10:34.245Z,28.22
2022-07-30T10:13:04.827Z,28.22
2022-07-30T10:15:34.832Z,28.24
2022-07-30T10:18:06.184Z,28.24
2022-07-30T10:20:33.793Z,28.14
2022-07-30T10:23:09.022Z,28.25
2022-07-30T10:25:37.032Z,28.18
2022-07-30T10:28:17.770Z,28.27
2022-07-30T10:30:45.214Z,28.27
2022-07-30T10:33:34.912Z,28.27
2022-07-30T10:35:59.147Z,28.26
2022-07-30T10:38:30.362Z,28.29
2022-07-30T10:41:27.514Z,28.24
2022-07-30T10:44:35.155Z,28.31
2022-07-30T10:47:13.980Z,28.30
2022-07-30T10:49:43.134Z,28.29
2022-07-30T10:52:10.727Z,28.30
2022-07-30T10:54:39.618Z,28.31
2022-07-30T10:57:11.683Z,28.31
2022-07-30T10:59:58.564Z,28.32
2022-07-30T11:02:31.307Z,28.32
2022-07-30T11:05:43.871Z,28.32
2022-07-30T11:08:36.190Z,28.33
2022-07-30T11:11:19.722Z,28.32
2022-07-30T11:13:54.159Z,28.33
2022-07-30T11:16:48.208Z,28.33
2022-07-30T11:19:55.235Z,28.21
2022-07-30T11:22:27.181Z,28.35
2022-07-30T11:24:54.096Z,28.36
2022-07-30T11:27:36.298Z,28.35
2022-07-30T11:30:26.607Z,27.69
2022-07-30T11:32:57.514Z,28.28
2022-07-30T11:35:25.848Z,28.37
2022-07-30T11:38:22.283Z,28.37
2022-07-30T11:40:49.093Z,28.37
2022-07-30T11:43:36.025Z,28.30
2022-07-30T11:46:10.483Z,28.41
2022-07-30T11:48:38.181Z,28.41
2022-07-30T11:51:05.159Z,28.42
2022-07-30T11:53:31.935Z,28.42
2022-07-30T11:56:00.541Z,28.43
2022-07-30T11:58:28.746Z,28.46
2022-07-30T12:01:01.747Z,28.47
2022-07-30T12:03:31.755Z,28.49
2022-07-30T12:06:05.915Z,28.53
2022-07-30T12:08:42.281Z,28.52
2022-07-30T12:11:09.271Z,28.52
2022-07-30T12:13:45.158Z,28.54
2022-07-30T12:16:17.281Z,28.54
2022-07-30T12:18:45.069Z,28.54
2022-07-30T12:21:12.732Z,28.54
2022-07-30T12:23:41.878Z,28.54
2022-07-30T12:26:08.758Z,27.75
2022-07-30T12:28:36.160Z,28.54
2022-07-30T12:31:04.379Z,28.48
2022-07-30T12:33:31.780Z,28.60
2022-07-30T12:36:00.067Z,28.57
2022-07-30T12:38:28.327Z,28.56
2022-07-30T12:41:03.385Z,28.61
2022-07-30T12:43:56.202Z,28.61
2022-07-30T12:46:26.587Z,28.68
2022-07-30T12:48:54.620Z,28.68
2022-07-30T12:51:26.131Z,28.67
2022-07-30T12:53:55.359Z,28.67
2022-07-30T12:56:27.305Z,28.66
2022-07-30T12:58:55.478Z,28.66
2022-07-30T13:01:44.236Z,28.65
2022-07-30T13:04:11.991Z,28.56
2022-07-30T13:06:40.193Z,28.41
2022-07-30T13:09:07.256Z,28.47
2022-07-30T13:11:48.750Z,28.45
2022-07-30T13:14:17.071Z,28.43
2022-07-30T13:16:43.739Z,28.42
2022-07-30T13:19:11.871Z,28.40
2022-07-30T13:21:39.905Z,28.39
2022-07-30T13:24:17.995Z,28.26
2022-07-30T13:26:45.154Z,28.38
2022-07-30T13:29:13.445Z,28.35
2022-07-30T13:31:43.015Z,28.39
2022-07-30T13:34:11.234Z,28.38
2022-07-30T13:36:37.824Z,28.38
2022-07-30T13:39:04.382Z,28.37
2022-07-30T13:41:31.008Z,28.35
2022-07-30T13:43:57.596Z,28.37
2022-07-30T13:46:24.155Z,28.24
2022-07-30T13:48:50.727Z,28.37
2022-07-30T13:51:17.413Z,28.32
2022-07-30T13:53:43.853Z,28.38
2022-07-30T13:56:12.443Z,28.39
2022-07-30T13:58:39.813Z,28.39
2022-07-30T14:01:07.132Z,28.41
2022-07-30T14:03:35.237Z,28.41
2022-07-30T14:06:10.645Z,28.40
2022-07-30T14:08:38.622Z,28.41
2022-07-30T14:11:05.103Z,28.40
2022-07-30T14:13:31.759Z,28.41
2022-07-30T14:15:58.434Z,28.27
2022-07-30T14:18:24.887Z,28.43
2022-07-30T14:20:53.631Z,28.43
2022-07-30T14:23:20.344Z,28.43
2022-07-30T14:25:47.187Z,28.44
2022-07-30T14:28:14.106Z,28.46
2022-07-30T14:30:40.967Z,28.46
2022-07-30T14:33:07.539Z,28.47
2022-07-30T14:35:34.010Z,28.46
2022-07-30T14:38:00.605Z,28.43
2022-07-30T14:40:27.122Z,28.52
2022-07-30T14:42:56.152Z,28.55
2022-07-30T14:45:23.111Z,28.39
2022-07-30T14:47:49.607Z,28.58
2022-07-30T14:50:16.280Z,28.59
2022-07-30T14:52:43.752Z,28.59
2022-07-30T14:55:10.495Z,28.59
2022-07-30T14:57:37.064Z,28.58
2022-07-30T15:00:05.825Z,28.58
2022-07-30T15:02:32.311Z,28.61
2022-07-30T15:04:58.878Z,28.61
2022-07-30T15:07:25.315Z,28.62
2022-07-30T15:09:51.759Z,28.63
2022-07-30T15:12:26.747Z,28.63
2022-07-30T15:14:53.867Z,28.64
2022-07-30T15:17:20.460Z,28.64
2022-07-30T15:19:51.014Z,28.64
2022-07-30T15:22:19.949Z,28.66
2022-07-30T15:24:46.503Z,28.66
2022-07-30T15:27:13.069Z,28.68
2022-07-30T15:29:39.587Z,28.69
2022-07-30T15:32:06.774Z,28.70
2022-07-30T15:34:37.024Z,28.70
2022-07-30T15:37:05.339Z,28.72
2022-07-30T15:39:33.473Z,28.73
2022-07-30T15:42:01.842Z,28.63
2022-07-30T15:44:28.706Z,28.69
2022-07-30T15:46:55.223Z,28.80
2022-07-30T15:49:21.771Z,28.83
2022-07-30T15:51:51.906Z,28.84
2022-07-30T15:54:23.291Z,28.81
2022-07-30T15:57:01.227Z,28.86
2022-07-30T15:59:28.734Z,28.85
2022-07-30T16:01:55.213Z,28.89
2022-07-30T16:04:22.053Z,28.89
2022-07-30T16:07:00.228Z,28.88
2022-07-30T16:09:26.817Z,28.91
2022-07-30T16:11:53.643Z,28.90
2022-07-30T16:14:20.215Z,28.90
2022-07-30T16:16:46.754Z,28.80
2022-07-30T16:19:13.251Z,28.96
2022-07-30T16:21:39.793Z,28.98
2022-07-30T16:24:07.112Z,28.95
2022-07-30T16:26:35.850Z,28.96
2022-07-30T16:29:02.316Z,29.02
2022-07-30T16:31:28.878Z,29.03
2022-07-30T16:33:55.395Z,29.03
2022-07-30T16:36:21.931Z,28.99
2022-07-30T16:38:48.696Z,29.05
2022-07-30T16:41:15.169Z,28.87
2022-07-30T16:43:41.636Z,28.87
2022-07-30T16:46:08.327Z,28.98
2022-07-30T16:48:34.860Z,29.04
2022-07-30T16:51:01.676Z,29.08
2022-07-30T16:53:28.593Z,28.98
2022-07-30T16:55:56.934Z,29.11
2022-07-30T16:58:30.722Z,29.12
2022-07-30T17:00:57.372Z,29.11
2022-07-30T17:03:25.276Z,29.12
2022-07-30T17:05:53.062Z,29.13
2022-07-30T17:08:24.880Z,29.08
2022-07-30T17:10:52.998Z,29.12
2022-07-30T17:13:20.403Z,29.12
2022-07-30T17:15:47.253Z,29.12
2022-07-30T17:18:14.089Z,29.08
2022-07-30T17:20:40.858Z,29.14
2022-07-30T17:23:07.871Z,29.15
2022-07-30T17:25:34.374Z,29.05
2022-07-30T17:28:01.412Z,29.16
2022-07-30T17:30:29.408Z,29.11
2022-07-30T17:32:56.144Z,29.15
2022-07-30T17:35:24.662Z,29.15
2022-07-30T17:37:51.509Z,29.15
2022-07-30T17:40:28.416Z,28.99
2022-07-30T17:43:03.339Z,29.05
2022-07-30T17:45:30.896Z,29.03
2022-07-30T17:47:57.884Z,29.15
2022-07-30T17:50:24.379Z,29.09
2022-07-30T17:52:50.805Z,29.14
2022-07-30T17:55:17.310Z,29.14
2022-07-30T17:57:43.788Z,29.14
2022-07-30T18:00:10.811Z,29.15
2022-07-30T18:02:37.368Z,29.14
2022-07-30T18:05:04.201Z,29.14
2022-07-30T18:07:30.687Z,29.04
2022-07-30T18:09:57.163Z,29.14
2022-07-30T18:12:23.622Z,29.14
2022-07-30T18:14:50.122Z,29.21
2022-07-30T18:17:16.606Z,29.28
2022-07-30T18:19:43.087Z,29.29
2022-07-30T18:22:09.767Z,29.31
2022-07-30T18:24:40.251Z,29.29
2022-07-30T18:27:11.557Z,29.31
2022-07-30T18:29:38.088Z,29.24
2022-07-30T18:32:05.376Z,29.33
2022-07-30T18:34:32.195Z,29.28
2022-07-30T18:36:58.771Z,29.33
2022-07-30T18:39:25.398Z,29.30
2022-07-30T18:41:51.847Z,29.31
2022-07-30T18:44:18.362Z,29.29
2022-07-30T18:46:44.938Z,29.28
2022-07-30T18:49:34.285Z,29.30
2022-07-30T18:51:59.348Z,29.24
2022-07-30T18:54:25.924Z,29.28
2022-07-30T18:56:52.366Z,29.30
2022-07-30T18:59:18.799Z,29.18
2022-07-30T19:01:45.375Z,29.14
2022-07-30T19:04:11.903Z,29.26
2022-07-30T19:06:38.529Z,29.24
2022-07-30T19:09:07.571Z,29.24
2022-07-30T19:11:43.680Z,29.22
2022-07-30T19:14:10.262Z,29.12
2022-07-30T19:16:36.853Z,29.19
2022-07-30T19:19:03.482Z,29.08
2022-07-30T19:21:29.983Z,29.04
2022-07-30T19:23:56.491Z,29.01
2022-07-30T19:26:23.303Z,29.15
2022-07-30T19:28:49.776Z,29.05
2022-07-30T19:31:16.510Z,29.07
2022-07-30T19:33:43.368Z,29.02
2022-07-30T19:36:10.215Z,29.01
2022-07-30T19:38:39.828Z,29.01
2022-07-30T19:41:06.730Z,28.61
2022-07-30T19:43:34.167Z,29.02
2022-07-30T19:46:03.882Z,28.21
2022-07-30T19:48:32.539Z,28.93
2022-07-30T19:51:00.729Z,28.98
2022-07-30T19:53:31.327Z,28.97
2022-07-30T19:56:01.645Z,28.92
2022-07-30T19:58:28.435Z,28.87
2022-07-30T20:00:54.991Z,28.88
2022-07-30T20:03:26.172Z,28.80
2022-07-30T20:05:59.940Z,28.53
2022-07-30T20:08:28.062Z,28.15
2022-07-30T20:10:57.888Z,28.66
2022-07-30T20:13:44.454Z,28.51
2022-07-30T20:16:13.268Z,28.62
2022-07-30T20:18:40.716Z,28.47
2022-07-30T20:21:11.308Z,28.36
2022-07-30T20:23:41.333Z,27.93
2022-07-30T20:26:12.250Z,28.58
2022-07-30T20:28:40.110Z,28.57
2022-07-30T20:31:07.198Z,28.57
2022-07-30T20:33:36.050Z,28.39
2022-07-30T20:36:04.606Z,28.50
2022-07-30T20:38:33.698Z,28.55
2022-07-30T20:41:02.224Z,27.41
2022-07-30T20:43:28.893Z,28.17
2022-07-30T20:45:56.107Z,28.54
2022-07-30T20:48:25.338Z,28.33
2022-07-30T20:50:52.396Z,28.51
2022-07-30T20:53:19.774Z,28.55
2022-07-30T20:55:47.257Z,28.54
2022-07-30T20:58:17.468Z,28.51
2022-07-30T21:00:49.931Z,28.46
2022-07-30T21:03:21.724Z,28.52
2022-07-30T21:05:48.716Z,28.56
2022-07-30T21:08:17.889Z,28.57
2022-07-30T21:10:44.804Z,28.57
2022-07-30T21:13:12.631Z,28.57
2022-07-30T21:18:25.694Z,28.58
2022-07-30T21:20:53.163Z,28.37
2022-07-30T21:23:22.346Z,28.58
2022-07-30T21:26:01.369Z,28.58
2022-07-30T21:28:35.804Z,28.59
2022-07-30T21:31:03.859Z,28.40
2022-07-30T21:33:33.775Z,28.48
2022-07-30T21:36:01.002Z,28.59
2022-07-30T21:38:27.727Z,28.49
2022-07-30T21:40:55.198Z,28.59
2022-07-30T21:43:29.671Z,28.47
2022-07-30T21:45:57.492Z,28.59
2022-07-30T21:48:24.367Z,28.58
2022-07-30T21:50:50.908Z,28.59
2022-07-30T21:53:17.380Z,28.53
2022-07-30T21:55:56.843Z,28.59
2022-07-30T21:58:26.208Z,28.50
2022-07-30T22:00:54.982Z,28.59
2022-07-30T22:04:04.049Z,28.60
2022-07-30T22:06:12.667Z,28.60
2022-07-30T22:08:39.874Z,28.60
2022-07-30T22:11:09.084Z,28.49
2022-07-30T22:13:36.346Z,28.57
2022-07-30T22:16:21.495Z,28.60
2022-07-30T22:18:48.032Z,28.61
2022-07-30T22:21:14.659Z,28.59
2022-07-30T22:23:54.793Z,28.55
2022-07-30T22:26:29.454Z,28.61
2022-07-30T22:28:55.907Z,28.52
2022-07-30T22:31:22.433Z,28.45
2022-07-30T22:33:50.914Z,28.52
2022-07-30T22:36:17.952Z,28.58
2022-07-30T22:38:58.887Z,28.60
2022-07-30T22:41:39.140Z,28.61
2022-07-30T22:44:06.723Z,28.08
2022-07-30T22:46:39.438Z,28.45
2022-07-30T22:49:23.592Z,28.45
2022-07-30T22:52:02.101Z,28.48
2022-07-30T22:54:37.316Z,28.61
2022-07-30T22:57:04.244Z,28.61
2022-07-30T22:59:58.264Z,28.51
2022-07-30T23:02:17.970Z,28.61
2022-07-30T23:04:44.541Z,28.61
2022-07-30T23:07:13.991Z,28.58
2022-07-30T23:09:49.448Z,28.45
2022-07-30T23:12:20.107Z,28.62
2022-07-30T23:12:32.821Z,28.57
2022-07-30T23:14:47.407Z,28.48
2022-07-30T23:17:13.972Z,28.51
2022-07-30T23:19:40.420Z,28.43
2022-07-30T23:22:07.162Z,28.53
2022-07-30T23:24:33.725Z,28.51
2022-07-30T23:27:00.483Z,28.62
2022-07-30T23:29:28.443Z,28.62
2022-07-30T23:31:55.434Z,28.62
2022-07-30T23:34:22.033Z,28.62
2022-07-30T23:36:48.517Z,28.43
2022-07-30T23:39:15.008Z,28.53
2022-07-30T23:41:43.713Z,28.57
2022-07-30T23:44:10.147Z,28.59
2022-07-30T23:46:37.132Z,28.49
2022-07-30T23:49:04.585Z,28.62
2022-07-30T23:51:33.597Z,28.62
2022-07-30T23:54:01.025Z,28.61
2022-07-30T23:56:27.511Z,28.62
2022-07-30T23:58:54.623Z,28.61
